Time;durP1;ratioP1;P1;durP2;ratioP2;P2;SDS_P1;SDS_P2;PMS_P1;PMS_P2;Temp;Humidity;BMP_temperature;BMP_pressure;BME280_temperature;BME280_humidity;BME280_pressure;Samples;Min_cycle;Max_cycle;Signal;HPM_P1;HPM_P2
2023/09/18 00:00:15;;;;;;;9.95;5.57;;;;;;;;;;5082024;28;20051;-74
2023/09/18 00:02:46;;;;;;;8.10;5.68;;;;;;;;;;5080159;28;20084;-73
2023/09/18 00:05:18;;;;;;;8.13;5.28;;;;;;;;;;5082148;28;20044;-72
2023/09/18 00:07:48;;;;;;;7.28;5.15;;;;;;;;;;5082167;28;20056;-72
2023/09/18 00:10:19;;;;;;;10.45;5.50;;;;;;;;;;5082101;28;20058;-72
2023/09/18 00:12:49;;;;;;;7.47;5.15;;;;;;;;;;5081896;28;20055;-73
2023/09/18 00:15:21;;;;;;;8.68;6.05;;;;;;;;;;5082370;28;20609;-72
2023/09/18 00:17:51;;;;;;;7.45;4.88;;;;;;;;;;5078803;28;20056;-72
2023/09/18 00:20:26;;;;;;;8.20;5.00;;;;;;;;;;5081636;28;20556;-73
2023/09/18 00:22:58;;;;;;;9.98;6.03;;;;;;;;;;5081823;28;20522;-72
2023/09/18 00:25:30;;;;;;;8.90;5.18;;;;;;;;;;5081097;28;20586;-72
2023/09/18 00:28:01;;;;;;;10.88;5.82;;;;;;;;;;5082687;28;20044;-72
2023/09/18 00:30:32;;;;;;;10.30;5.00;;;;;;;;;;5081966;28;20048;-72
2023/09/18 00:33:02;;;;;;;14.57;6.25;;;;;;;;;;5081651;28;20509;-72
2023/09/18 00:35:34;;;;;;;7.18;5.60;;;;;;;;;;5081815;28;20052;-72
2023/09/18 00:38:07;;;;;;;9.93;6.72;;;;;;;;;;5082288;28;20383;-73
2023/09/18 00:40:38;;;;;;;9.02;5.60;;;;;;;;;;5081060;28;20048;-72
2023/09/18 00:43:10;;;;;;;12.45;5.32;;;;;;;;;;5079877;28;20506;-73
2023/09/18 00:45:47;;;;;;;10.65;5.28;;;;;;;;;;5084206;28;20051;-74
2023/09/18 00:48:18;;;;;;;10.80;6.03;;;;;;;;;;5084920;28;20090;-72
2023/09/18 00:50:49;;;;;;;13.18;5.70;;;;;;;;;;5086054;28;20063;-73
2023/09/18 00:53:23;;;;;;;8.23;6.10;;;;;;;;;;5084459;28;20083;-72
2023/09/18 00:55:58;;;;;;;11.73;5.38;;;;;;;;;;5085251;28;20062;-80
2023/09/18 00:58:29;;;;;;;10.18;5.18;;;;;;;;;;5086090;28;20048;-72
2023/09/18 01:01:00;;;;;;;10.43;4.72;;;;;;;;;;5085933;28;20063;-73
2023/09/18 01:03:31;;;;;;;17.67;6.07;;;;;;;;;;5083983;28;20515;-73
2023/09/18 01:06:03;;;;;;;8.02;5.18;;;;;;;;;;5085831;28;20511;-73
2023/09/18 01:08:34;;;;;;;11.52;6.07;;;;;;;;;;5085370;28;20051;-73
2023/09/18 01:11:05;;;;;;;10.18;5.30;;;;;;;;;;5085613;28;20040;-73
2023/09/18 01:14:17;;;;;;;12.23;6.13;;;;;;;;;;5086170;28;20675;-72
2023/09/18 01:16:56;;;;;;;;;;;;;;;;;;5085387;28;20050;-72
2023/09/18 01:19:38;;;;;;;8.52;5.60;;;;;;;;;;5083356;28;19924;-72
2023/09/18 01:22:11;;;;;;;10.45;5.80;;;;;;;;;;5083559;28;20717;-72
2023/09/18 01:24:43;;;;;;;10.15;5.40;;;;;;;;;;5085402;28;20406;-73
2023/09/18 01:27:17;;;;;;;13.50;6.00;;;;;;;;;;5085432;28;20052;-73
2023/09/18 01:29:49;;;;;;;10.18;5.43;;;;;;;;;;5085009;28;20044;-72
2023/09/18 01:32:19;;;;;;;8.30;5.72;;;;;;;;;;5085045;28;20048;-72
2023/09/18 01:34:54;;;;;;;9.90;4.82;;;;;;;;;;5085223;28;20059;-72
2023/09/18 01:37:29;;;;;;;10.10;5.70;;;;;;;;;;5083118;28;20056;-72
2023/09/18 01:40:06;;;;;;;10.55;5.32;;;;;;;;;;5085181;28;20300;-73
2023/09/18 01:42:37;;;;;;;10.80;5.70;;;;;;;;;;5083395;28;20055;-72
2023/09/18 01:45:09;;;;;;;9.15;6.40;;;;;;;;;;5085228;28;20498;-73
2023/09/18 01:47:41;;;;;;;8.63;6.05;;;;;;;;;;5084066;28;20586;-72
2023/09/18 01:50:13;;;;;;;7.57;5.50;;;;;;;;;;5085107;28;20499;-72
2023/09/18 01:52:43;;;;;;;9.95;5.28;;;;;;;;;;5084213;28;20063;-73
2023/09/18 01:55:14;;;;;;;11.80;5.82;;;;;;;;;;5084038;28;20059;-73
2023/09/18 01:57:45;;;;;;;8.00;6.28;;;;;;;;;;5084398;28;20040;-72
2023/09/18 02:00:18;;;;;;;9.50;6.22;;;;;;;;;;5082161;28;20067;-73
2023/09/18 02:02:49;;;;;;;12.82;5.97;;;;;;;;;;5085573;28;20048;-72
2023/09/18 02:05:41;;;;;;;9.60;6.05;;;;;;;;;;5082514;28;20063;-72
2023/09/18 02:08:13;;;;;;;9.85;6.03;;;;;;;;;;5083694;28;20423;-72
2023/09/18 02:10:44;;;;;;;10.35;5.15;;;;;;;;;;5084671;28;20507;-72
2023/09/18 02:13:15;;;;;;;8.30;4.95;;;;;;;;;;5082098;28;20067;-72
2023/09/18 02:15:46;;;;;;;6.68;5.90;;;;;;;;;;5082258;28;20055;-73
2023/09/18 02:18:18;;;;;;;13.48;5.90;;;;;;;;;;5084969;28;20040;-72
2023/09/18 02:20:49;;;;;;;7.97;4.93;;;;;;;;;;5082818;28;20048;-72
2023/09/18 02:23:20;;;;;;;8.18;5.63;;;;;;;;;;5084775;28;20052;-73
2023/09/18 02:25:59;;;;;;;8.80;5.53;;;;;;;;;;5082264;28;20052;-72
2023/09/18 02:28:33;;;;;;;8.23;5.70;;;;;;;;;;5082485;28;20491;-72
2023/09/18 02:31:04;;;;;;;9.52;6.80;;;;;;;;;;5084312;28;20059;-72
2023/09/18 02:33:35;;;;;;;9.35;5.43;;;;;;;;;;5083877;28;20525;-72
2023/09/18 02:36:07;;;;;;;10.25;5.07;;;;;;;;;;5084216;28;20055;-72
2023/09/18 02:38:38;;;;;;;10.50;6.22;;;;;;;;;;5065881;28;20590;-73
2023/09/18 02:41:09;;;;;;;9.13;5.22;;;;;;;;;;5084207;28;20067;-73
2023/09/18 02:43:40;;;;;;;8.82;5.70;;;;;;;;;;5083570;28;20448;-72
2023/09/18 02:46:13;;;;;;;8.70;5.95;;;;;;;;;;5081267;28;20678;-75
2023/09/18 02:48:44;;;;;;;10.48;6.03;;;;;;;;;;5081545;28;20596;-73
2023/09/18 02:51:15;;;;;;;7.95;5.18;;;;;;;;;;5083241;28;20050;-72
2023/09/18 02:53:45;;;;;;;11.68;5.93;;;;;;;;;;5083601;28;20040;-73
2023/09/18 02:56:17;;;;;;;9.25;5.72;;;;;;;;;;5081372;28;20059;-73
2023/09/18 02:58:48;;;;;;;8.23;5.25;;;;;;;;;;5081866;28;20395;-73
2023/09/18 03:01:20;;;;;;;12.40;6.38;;;;;;;;;;5083257;28;20050;-73
2023/09/18 03:03:50;;;;;;;8.13;5.18;;;;;;;;;;5081612;28;20048;-71
2023/09/18 03:06:23;;;;;;;8.13;6.43;;;;;;;;;;5082322;28;20514;-71
2023/09/18 03:08:54;;;;;;;8.15;5.80;;;;;;;;;;5081804;28;20051;-72
2023/09/18 03:11:27;;;;;;;8.07;5.25;;;;;;;;;;5083359;28;20067;-72
2023/09/18 03:13:57;;;;;;;10.30;5.85;;;;;;;;;;5082989;28;20048;-72
2023/09/18 03:16:28;;;;;;;7.20;5.88;;;;;;;;;;5082960;28;20058;-72
2023/09/18 03:18:59;;;;;;;10.45;5.35;;;;;;;;;;5081229;28;20055;-71
2023/09/18 03:21:33;;;;;;;8.82;5.05;;;;;;;;;;5081202;28;20067;-72
2023/09/18 03:24:04;;;;;;;8.10;4.95;;;;;;;;;;5081116;28;20431;-72
2023/09/18 03:26:36;;;;;;;9.02;5.50;;;;;;;;;;5082933;28;20044;-72
2023/09/18 03:29:07;;;;;;;10.00;5.20;;;;;;;;;;5080938;28;20063;-72
2023/09/18 03:31:38;;;;;;;9.90;6.07;;;;;;;;;;5081060;28;20499;-72
2023/09/18 03:34:09;;;;;;;7.75;5.78;;;;;;;;;;5079975;28;20059;-72
2023/09/18 03:36:39;;;;;;;6.85;4.72;;;;;;;;;;5082629;28;20048;-72
2023/09/18 03:39:11;;;;;;;11.00;6.15;;;;;;;;;;5082934;28;20052;-72
2023/09/18 03:41:41;;;;;;;8.30;5.30;;;;;;;;;;5083040;28;20044;-71
2023/09/18 03:44:11;;;;;;;8.63;6.20;;;;;;;;;;5081130;28;20052;-72
2023/09/18 03:46:42;;;;;;;7.63;5.22;;;;;;;;;;5080782;28;20056;-71
2023/09/18 03:49:13;;;;;;;6.63;5.18;;;;;;;;;;5081590;28;20703;-72
2023/09/18 03:51:44;;;;;;;9.80;5.25;;;;;;;;;;5080434;28;20055;-72
2023/09/18 03:54:15;;;;;;;9.57;5.75;;;;;;;;;;5082206;28;20051;-72
2023/09/18 03:56:46;;;;;;;10.27;5.03;;;;;;;;;;5082267;28;20047;-72
2023/09/18 03:59:17;;;;;;;7.30;5.18;;;;;;;;;;5082296;28;20059;-71
2023/09/18 04:01:48;;;;;;;8.18;5.78;;;;;;;;;;5081176;28;20066;-72
2023/09/18 04:04:19;;;;;;;8.98;5.03;;;;;;;;;;5082640;28;20047;-72
2023/09/18 04:06:50;;;;;;;8.88;5.22;;;;;;;;;;5080240;28;20507;-72
2023/09/18 04:09:21;;;;;;;7.93;5.30;;;;;;;;;;5082079;28;20051;-72
2023/09/18 04:11:51;;;;;;;8.23;4.72;;;;;;;;;;5081287;28;20048;-71
2023/09/18 04:14:22;;;;;;;11.63;5.22;;;;;;;;;;5080584;28;20510;-72
2023/09/18 04:16:53;;;;;;;12.40;5.30;;;;;;;;;;5082493;28;20048;-72
2023/09/18 04:19:25;;;;;;;14.05;6.00;;;;;;;;;;5080477;28;20048;-72
2023/09/18 04:21:56;;;;;;;8.93;5.28;;;;;;;;;;5081756;28;20044;-72
2023/09/18 04:24:26;;;;;;;8.63;4.88;;;;;;;;;;5081000;28;20056;-72
2023/09/18 04:27:02;;;;;;;8.63;5.28;;;;;;;;;;5082500;28;20050;-72
2023/09/18 04:29:33;;;;;;;7.65;5.00;;;;;;;;;;5080158;28;20051;-72
2023/09/18 04:32:05;;;;;;;15.93;5.28;;;;;;;;;;5080108;28;20052;-72
2023/09/18 04:34:36;;;;;;;8.55;5.75;;;;;;;;;;5081811;28;20055;-71
2023/09/18 04:37:07;;;;;;;10.27;6.13;;;;;;;;;;5064198;28;20059;-72
2023/09/18 04:39:38;;;;;;;9.02;6.28;;;;;;;;;;5082443;28;20258;-72
2023/09/18 04:42:09;;;;;;;8.30;5.55;;;;;;;;;;5063858;28;20059;-72
2023/09/18 04:44:40;;;;;;;10.52;5.20;;;;;;;;;;5080337;28;20048;-72
2023/09/18 04:47:11;;;;;;;8.50;5.07;;;;;;;;;;5080197;28;20114;-72
2023/09/18 04:49:45;;;;;;;9.82;5.63;;;;;;;;;;5080658;28;20052;-72
2023/09/18 04:52:15;;;;;;;8.43;5.13;;;;;;;;;;5080564;28;20100;-72
2023/09/18 04:54:46;;;;;;;6.78;4.95;;;;;;;;;;5081546;28;20048;-72
2023/09/18 04:57:16;;;;;;;10.02;5.32;;;;;;;;;;5079642;28;20056;-72
2023/09/18 04:59:50;;;;;;;9.68;5.55;;;;;;;;;;5081089;28;20048;-72
2023/09/18 05:02:37;;;;;;;7.63;4.97;;;;;;;;;;5080577;28;20410;-72
2023/09/18 05:05:11;;;;;;;8.68;4.90;;;;;;;;;;5082748;28;20036;-71
2023/09/18 05:07:42;;;;;;;7.75;5.35;;;;;;;;;;5080977;28;20052;-72
2023/09/18 05:10:14;;;;;;;8.55;4.97;;;;;;;;;;5082145;28;20044;-73
2023/09/18 05:12:44;;;;;;;7.05;4.82;;;;;;;;;;5081448;28;20047;-72
2023/09/18 05:15:16;;;;;;;10.93;5.55;;;;;;;;;;5081333;28;20052;-72
2023/09/18 05:17:51;;;;;;;6.45;5.35;;;;;;;;;;5080925;28;20048;-72
2023/09/18 05:20:24;;;;;;;7.47;5.15;;;;;;;;;;5079503;28;20056;-72
2023/09/18 05:22:56;;;;;;;12.57;5.25;;;;;;;;;;5081801;28;20052;-72
2023/09/18 05:25:32;;;;;;;8.68;4.97;;;;;;;;;;5081253;28;20052;-72
2023/09/18 05:28:05;;;;;;;9.52;4.90;;;;;;;;;;5081489;28;20055;-72
2023/09/18 05:30:40;;;;;;;11.38;5.18;;;;;;;;;;5079369;28;20074;-72
2023/09/18 05:33:12;;;;;;;8.02;5.13;;;;;;;;;;5085554;28;20044;-72
2023/09/18 05:35:44;;;;;;;6.75;4.97;;;;;;;;;;5083799;28;20063;-72
2023/09/18 05:38:17;;;;;;;9.68;5.03;;;;;;;;;;5085153;28;20056;-72
2023/09/18 05:40:48;;;;;;;6.85;4.90;;;;;;;;;;5085277;28;20518;-71
2023/09/18 05:43:18;;;;;;;10.13;4.90;;;;;;;;;;5085174;28;20048;-72
2023/09/18 05:45:49;;;;;;;9.43;5.43;;;;;;;;;;5085022;28;20048;-71
2023/09/18 05:48:20;;;;;;;6.75;4.82;;;;;;;;;;5084469;28;20067;-72
2023/09/18 05:50:52;;;;;;;6.82;5.22;;;;;;;;;;5084528;28;20055;-71
2023/09/18 05:53:23;;;;;;;11.48;5.88;;;;;;;;;;5084736;28;20047;-72
2023/09/18 05:55:53;;;;;;;7.70;5.47;;;;;;;;;;5084220;28;20048;-71
2023/09/18 05:58:26;;;;;;;9.00;5.18;;;;;;;;;;5084485;28;20392;-72
2023/09/18 06:00:57;;;;;;;10.10;5.65;;;;;;;;;;5084489;28;20852;-72
2023/09/18 06:03:30;;;;;;;7.75;4.95;;;;;;;;;;5084060;28;20050;-72
2023/09/18 06:06:03;;;;;;;8.13;5.30;;;;;;;;;;5084186;28;20056;-71
2023/09/18 06:08:34;;;;;;;7.97;5.43;;;;;;;;;;5083745;28;20059;-72
2023/09/18 06:11:05;;;;;;;8.95;5.80;;;;;;;;;;5084539;28;20498;-73
2023/09/18 06:13:37;;;;;;;12.70;6.10;;;;;;;;;;5083742;28;20518;-71
2023/09/18 06:16:08;;;;;;;9.07;5.20;;;;;;;;;;5084137;28;20052;-72
2023/09/18 06:18:38;;;;;;;9.98;5.30;;;;;;;;;;5083888;28;20055;-72
2023/09/18 06:21:09;;;;;;;8.18;5.43;;;;;;;;;;5082572;28;20066;-72
2023/09/18 06:23:40;;;;;;;8.80;5.35;;;;;;;;;;5083960;28;20535;-72
2023/09/18 06:26:12;;;;;;;7.55;5.50;;;;;;;;;;5084186;28;20529;-71
2023/09/18 06:28:43;;;;;;;7.07;5.10;;;;;;;;;;5084948;28;20077;-71
2023/09/18 06:31:14;;;;;;;10.95;5.47;;;;;;;;;;5084079;28;20051;-73
2023/09/18 06:33:45;;;;;;;10.07;4.75;;;;;;;;;;5084041;28;20048;-72
2023/09/18 06:36:15;;;;;;;8.05;4.63;;;;;;;;;;5083998;28;20422;-71
2023/09/18 06:38:47;;;;;;;8.25;5.18;;;;;;;;;;5084090;28;20055;-72
2023/09/18 06:41:18;;;;;;;7.35;4.90;;;;;;;;;;5083556;28;20044;-72
2023/09/18 06:43:51;;;;;;;8.85;5.00;;;;;;;;;;5082044;28;20040;-72
2023/09/18 06:46:21;;;;;;;11.95;6.00;;;;;;;;;;5083597;28;20044;-72
2023/09/18 06:48:52;;;;;;;7.88;4.63;;;;;;;;;;5083976;28;20525;-72
2023/09/18 06:51:28;;;;;;;6.30;4.90;;;;;;;;;;5083418;28;20617;-72
2023/09/18 06:54:12;;;;;;;10.38;4.95;;;;;;;;;;5083296;28;20087;-71
2023/09/18 06:56:44;;;;;;;6.63;5.07;;;;;;;;;;5083442;28;20048;-72
2023/09/18 06:59:15;;;;;;;9.88;5.70;;;;;;;;;;5083831;28;20052;-72
2023/09/18 07:01:47;;;;;;;8.85;4.78;;;;;;;;;;5083801;28;20040;-71
2023/09/18 07:04:17;;;;;;;11.77;5.10;;;;;;;;;;5083814;28;20419;-72
2023/09/18 07:06:48;;;;;;;7.40;5.30;;;;;;;;;;5083839;28;21146;-72
2023/09/18 07:09:22;;;;;;;7.18;5.10;;;;;;;;;;5083001;28;20055;-72
2023/09/18 07:11:53;;;;;;;8.15;4.90;;;;;;;;;;5082599;28;20059;-72
2023/09/18 07:14:25;;;;;;;8.52;5.10;;;;;;;;;;5082786;28;20036;-72
2023/09/18 07:16:55;;;;;;;8.15;4.75;;;;;;;;;;5082337;28;20043;-72
2023/09/18 07:19:27;;;;;;;7.38;5.30;;;;;;;;;;5082920;28;20059;-72
2023/09/18 07:21:59;;;;;;;7.13;4.80;;;;;;;;;;5082813;28;20044;-72
2023/09/18 07:24:29;;;;;;;8.35;4.65;;;;;;;;;;5083079;28;20083;-72
2023/09/18 07:27:00;;;;;;;11.60;4.63;;;;;;;;;;5083020;28;20055;-72
2023/09/18 07:29:33;;;;;;;8.13;5.50;;;;;;;;;;5082729;28;20530;-72
2023/09/18 07:32:04;;;;;;;7.35;5.00;;;;;;;;;;5082774;28;20059;-72
2023/09/18 07:34:35;;;;;;;8.00;5.05;;;;;;;;;;5083276;28;20048;-72
2023/09/18 07:37:05;;;;;;;9.82;4.72;;;;;;;;;;5083500;28;20070;-73
2023/09/18 07:39:36;;;;;;;7.13;5.60;;;;;;;;;;5082576;28;20075;-72
2023/09/18 07:42:08;;;;;;;6.47;5.20;;;;;;;;;;5082083;28;20059;-72
2023/09/18 07:44:38;;;;;;;6.85;5.07;;;;;;;;;;5082665;28;20048;-72
2023/09/18 07:47:08;;;;;;;7.53;4.45;;;;;;;;;;5082312;28;20043;-72
2023/09/18 07:49:39;;;;;;;5.93;4.78;;;;;;;;;;5082246;28;20058;-72
2023/09/18 07:52:10;;;;;;;6.22;4.30;;;;;;;;;;5082928;28;20040;-72
2023/09/18 07:54:41;;;;;;;11.05;5.78;;;;;;;;;;5081961;28;20526;-72
2023/09/18 07:57:11;;;;;;;7.97;4.80;;;;;;;;;;5082574;28;20048;-72
2023/09/18 07:59:44;;;;;;;9.82;5.10;;;;;;;;;;5082362;28;20051;-72
2023/09/18 08:02:15;;;;;;;8.60;5.78;;;;;;;;;;5080240;28;20055;-72
2023/09/18 08:04:45;;;;;;;9.77;4.82;;;;;;;;;;5082778;28;20055;-72
2023/09/18 08:07:17;;;;;;;6.43;4.95;;;;;;;;;;5082191;28;20897;-73
2023/09/18 08:09:51;;;;;;;8.60;5.60;;;;;;;;;;5081430;28;20044;-72
2023/09/18 08:12:25;;;;;;;;;;;;;;;;;;5082647;28;20048;-72
2023/09/18 08:14:58;;;;;;;9.93;5.25;;;;;;;;;;5081074;28;19924;-71
2023/09/18 08:17:29;;;;;;;7.32;5.18;;;;;;;;;;5081868;28;20044;-72
2023/09/18 08:20:01;;;;;;;6.57;4.50;;;;;;;;;;5082342;28;20502;-72
2023/09/18 08:22:33;;;;;;;5.32;4.80;;;;;;;;;;5081904;28;20046;-72
2023/09/18 08:25:05;;;;;;;10.27;4.95;;;;;;;;;;5081835;28;20533;-72
2023/09/18 08:27:37;;;;;;;9.43;4.60;;;;;;;;;;5082042;28;20036;-72
2023/09/18 08:30:09;;;;;;;6.18;4.40;;;;;;;;;;5081894;28;20047;-72
2023/09/18 08:32:41;;;;;;;6.78;5.18;;;;;;;;;;5082973;28;20055;-72
2023/09/18 08:35:12;;;;;;;6.40;4.85;;;;;;;;;;5082291;28;20495;-72
2023/09/18 08:37:43;;;;;;;6.93;4.47;;;;;;;;;;5082489;28;20561;-72
2023/09/18 08:40:14;;;;;;;7.50;4.82;;;;;;;;;;5081970;28;20052;-77
2023/09/18 08:42:51;;;;;;;6.40;4.13;;;;;;;;;;5082031;28;20048;-72
2023/09/18 08:45:31;;;;;;;7.60;5.70;;;;;;;;;;5081852;28;20052;-71
2023/09/18 08:48:03;;;;;;;6.50;5.00;;;;;;;;;;5081830;28;20676;-71
2023/09/18 08:50:36;;;;;;;6.28;5.05;;;;;;;;;;5082219;28;20051;-72
2023/09/18 08:53:07;;;;;;;9.55;5.22;;;;;;;;;;5082297;28;20040;-72
2023/09/18 08:55:38;;;;;;;7.15;4.75;;;;;;;;;;5081898;28;20059;-72
2023/09/18 08:58:09;;;;;;;8.68;5.10;;;;;;;;;;5082083;28;20052;-72
2023/09/18 09:00:42;;;;;;;6.13;4.82;;;;;;;;;;5081683;28;20076;-74
2023/09/18 09:03:14;;;;;;;8.13;4.78;;;;;;;;;;5082117;28;20503;-74
2023/09/18 09:05:47;;;;;;;8.38;5.25;;;;;;;;;;5081663;28;20055;-72
2023/09/18 09:08:17;;;;;;;8.98;4.95;;;;;;;;;;5085830;28;20052;-72
2023/09/18 09:10:50;;;;;;;7.57;4.97;;;;;;;;;;5085890;28;20048;-72
2023/09/18 09:13:25;;;;;;;10.18;5.50;;;;;;;;;;5085489;28;20044;-72
2023/09/18 09:16:12;;;;;;;9.30;4.50;;;;;;;;;;5084185;28;20518;-72
2023/09/18 09:18:51;;;;;;;7.30;5.22;;;;;;;;;;5085160;28;20036;-72
2023/09/18 09:21:22;;;;;;;7.07;5.38;;;;;;;;;;5085468;28;20036;-72
2023/09/18 09:23:56;;;;;;;7.65;4.55;;;;;;;;;;5067141;28;20067;-72
2023/09/18 09:26:26;;;;;;;6.32;5.13;;;;;;;;;;5085135;28;20051;-74
2023/09/18 09:28:57;;;;;;;9.07;4.85;;;;;;;;;;5085814;28;20063;-74
2023/09/18 09:31:30;;;;;;;8.65;5.60;;;;;;;;;;5083996;28;20541;-73
2023/09/18 09:34:05;;;;;;;7.90;4.53;;;;;;;;;;5085008;28;20040;-72
2023/09/18 09:36:35;;;;;;;8.80;5.30;;;;;;;;;;5084156;28;20627;-72
2023/09/18 09:39:05;;;;;;;8.90;4.40;;;;;;;;;;5083293;28;20052;-72
2023/09/18 09:41:45;;;;;;;7.50;5.10;;;;;;;;;;5085054;28;20048;-72
2023/09/18 09:44:17;;;;;;;10.15;4.95;;;;;;;;;;5084329;28;20063;-72
2023/09/18 09:46:48;;;;;;;8.23;4.95;;;;;;;;;;5083414;28;20055;-73
2023/09/18 09:49:23;;;;;;;6.65;4.47;;;;;;;;;;5085406;28;20407;-72
2023/09/18 09:51:55;;;;;;;8.73;5.20;;;;;;;;;;5085334;28;20048;-72
2023/09/18 09:54:36;;;;;;;7.35;5.18;;;;;;;;;;5084548;28;20411;-74
2023/09/18 09:57:07;;;;;;;;;;;;;;;;;;5085056;28;20048;-74
2023/09/18 09:59:37;;;;;;;6.57;3.97;;;;;;;;;;5084334;28;19935;-73
2023/09/18 10:02:11;;;;;;;15.98;6.55;;;;;;;;;;5085435;28;20040;-72
2023/09/18 10:04:45;;;;;;;8.68;4.45;;;;;;;;;;5083991;28;20055;-72
2023/09/18 10:07:18;;;;;;;7.93;5.07;;;;;;;;;;5085248;28;20051;-73
2023/09/18 10:09:49;;;;;;;15.57;5.30;;;;;;;;;;5084105;28;20044;-75
2023/09/18 10:12:21;;;;;;;7.57;5.57;;;;;;;;;;5084194;28;20048;-73
2023/09/18 10:14:56;;;;;;;8.13;5.50;;;;;;;;;;5084014;28;20055;-72
2023/09/18 10:17:33;;;;;;;7.43;4.40;;;;;;;;;;5083975;28;20056;-72
2023/09/18 10:20:19;;;;;;;8.82;4.47;;;;;;;;;;5084901;28;20589;-72
2023/09/18 10:22:54;;;;;;;6.57;4.90;;;;;;;;;;5084502;28;20048;-71
2023/09/18 10:25:32;;;;;;;6.75;4.40;;;;;;;;;;5082305;28;20052;-72
2023/09/18 10:28:03;;;;;;;8.15;5.05;;;;;;;;;;5084164;28;20058;-75
2023/09/18 10:30:34;;;;;;;11.23;4.50;;;;;;;;;;5084301;28;20561;-73
2023/09/18 10:33:07;;;;;;;8.95;4.38;;;;;;;;;;5082805;28;20056;-73
2023/09/18 10:35:39;;;;;;;7.82;4.30;;;;;;;;;;5083773;28;20044;-72
2023/09/18 10:38:10;;;;;;;12.02;5.57;;;;;;;;;;5082870;28;20052;-72
2023/09/18 10:40:43;;;;;;;8.15;4.32;;;;;;;;;;5083887;28;20039;-72
2023/09/18 10:43:17;;;;;;;6.50;3.95;;;;;;;;;;5084573;28;20044;-75
2023/09/18 10:45:51;;;;;;;6.53;5.25;;;;;;;;;;5084254;28;20078;-72
2023/09/18 10:48:22;;;;;;;12.02;4.22;;;;;;;;;;5082577;28;20052;-72
2023/09/18 10:50:54;;;;;;;8.63;4.95;;;;;;;;;;5083995;28;20525;-72
2023/09/18 10:53:26;;;;;;;9.63;5.03;;;;;;;;;;5083728;28;20048;-72
2023/09/18 10:55:58;;;;;;;13.88;5.38;;;;;;;;;;5081837;28;20059;-72
2023/09/18 10:58:28;;;;;;;6.75;4.20;;;;;;;;;;5083668;28;20048;-73
2023/09/18 11:01:00;;;;;;;9.70;4.45;;;;;;;;;;5083662;28;20052;-73
2023/09/18 11:03:34;;;;;;;15.40;4.65;;;;;;;;;;5081782;28;20545;-74
2023/09/18 11:06:14;;;;;;;14.10;5.00;;;;;;;;;;5083026;28;20511;-73
2023/09/18 11:08:47;;;;;;;10.90;6.25;;;;;;;;;;5083419;28;20040;-73
2023/09/18 11:11:20;;;;;;;16.15;7.30;;;;;;;;;;5083362;28;20059;-73
2023/09/18 11:13:54;;;;;;;7.32;4.10;;;;;;;;;;5082941;28;20048;-74
2023/09/18 11:16:28;;;;;;;4.93;3.95;;;;;;;;;;5081890;28;20586;-72
2023/09/18 11:19:01;;;;;;;9.43;4.00;;;;;;;;;;5082765;28;20048;-72
2023/09/18 11:21:33;;;;;;;11.98;4.53;;;;;;;;;;5082285;28;20051;-73
2023/09/18 11:24:29;;;;;;;8.98;3.60;;;;;;;;;;5082738;28;20056;-74
2023/09/18 11:27:00;;;;;;;8.80;3.75;;;;;;;;;;5083011;28;20043;-72
2023/09/18 11:29:37;;;;;;;12.13;4.53;;;;;;;;;;5082469;28;20051;-72
2023/09/18 11:32:09;;;;;;;10.30;6.88;;;;;;;;;;5082877;28;20051;-73
2023/09/18 11:34:41;;;;;;;7.13;4.28;;;;;;;;;;5082946;28;20051;-75
2023/09/18 11:37:23;;;;;;;8.75;3.40;;;;;;;;;;5062984;28;20264;-74
2023/09/18 11:39:55;;;;;;;5.68;3.58;;;;;;;;;;5081277;28;20596;-76
2023/09/18 11:42:26;;;;;;;5.80;3.40;;;;;;;;;;5082726;28;20523;-74
2023/09/18 11:44:58;;;;;;;9.23;4.30;;;;;;;;;;5082619;28;20156;-73
2023/09/18 11:47:29;;;;;;;9.85;4.13;;;;;;;;;;5082247;28;20054;-74
2023/09/18 11:50:00;;;;;;;7.82;4.40;;;;;;;;;;5081262;28;20052;-75
2023/09/18 11:52:35;;;;;;;10.70;3.50;;;;;;;;;;5082823;28;20055;-74
2023/09/18 11:55:07;;;;;;;7.38;3.70;;;;;;;;;;5082895;28;20048;-73
2023/09/18 11:57:42;;;;;;;9.35;3.30;;;;;;;;;;5083401;28;20056;-74
2023/09/18 12:00:25;;;;;;;6.57;3.60;;;;;;;;;;5082365;28;20521;-74
2023/09/18 12:02:57;;;;;;;4.15;3.45;;;;;;;;;;5082154;28;20044;-75
2023/09/18 12:05:28;;;;;;;4.93;3.53;;;;;;;;;;5082121;28;20056;-74
2023/09/18 12:07:59;;;;;;;4.72;3.75;;;;;;;;;;5082121;28;20059;-79
2023/09/18 12:10:31;;;;;;;8.43;3.80;;;;;;;;;;5082399;28;20048;-74
2023/09/18 12:13:09;;;;;;;5.78;3.78;;;;;;;;;;5081511;28;20059;-73
2023/09/18 12:15:41;;;;;;;8.55;4.15;;;;;;;;;;5081689;28;20836;-75
2023/09/18 12:18:13;;;;;;;7.68;4.10;;;;;;;;;;5081701;28;20052;-79
2023/09/18 12:20:48;;;;;;;13.70;4.38;;;;;;;;;;5081712;28;20044;-74
2023/09/18 12:23:19;;;;;;;10.20;3.90;;;;;;;;;;5081492;28;20861;-74
2023/09/18 12:25:57;;;;;;;16.25;4.80;;;;;;;;;;5082585;28;20088;-74
2023/09/18 12:28:44;;;;;;;7.85;4.53;;;;;;;;;;5082042;28;20407;-75
2023/09/18 12:31:19;;;;;;;10.75;4.57;;;;;;;;;;5082430;28;20055;-74
2023/09/18 12:33:56;;;;;;;8.43;4.60;;;;;;;;;;5081490;28;20040;-73
2023/09/18 12:36:27;;;;;;;5.90;4.35;;;;;;;;;;5082022;28;20059;-77
2023/09/18 12:39:00;;;;;;;7.45;4.13;;;;;;;;;;5082016;28;20719;-75
2023/09/18 12:41:32;;;;;;;16.48;4.57;;;;;;;;;;5085194;28;20040;-74
2023/09/18 12:44:03;;;;;;;12.73;4.20;;;;;;;;;;5086778;28;20613;-74
2023/09/18 12:46:35;;;;;;;8.57;4.28;;;;;;;;;;5087087;28;20052;-74
2023/09/18 12:49:27;;;;;;;13.52;3.85;;;;;;;;;;5086078;28;20407;-74
2023/09/18 12:52:06;;;;;;;8.05;4.03;;;;;;;;;;5084445;28;20059;-73
2023/09/18 12:54:54;;;;;;;10.02;3.67;;;;;;;;;;5085672;28;20054;-81
2023/09/18 12:57:26;;;;;;;7.47;3.90;;;;;;;;;;5085479;28;20048;-73
2023/09/18 12:59:56;;;;;;;8.00;3.60;;;;;;;;;;5085184;28;20036;-72
2023/09/18 13:02:28;;;;;;;10.60;3.53;;;;;;;;;;5086010;28;20741;-73
2023/09/18 13:04:58;;;;;;;12.95;4.55;;;;;;;;;;5085179;28;20044;-72
2023/09/18 13:07:28;;;;;;;13.00;4.15;;;;;;;;;;5086127;28;20419;-74
2023/09/18 13:10:10;;;;;;;10.65;4.00;;;;;;;;;;5085287;28;20503;-73
2023/09/18 13:12:52;;;;;;;6.70;2.95;;;;;;;;;;5085328;28;20382;-74
2023/09/18 13:15:31;;;;;;;8.50;3.20;;;;;;;;;;5085463;28;20495;-73
2023/09/18 13:18:10;;;;;;;6.63;3.05;;;;;;;;;;5086190;28;20048;-73
2023/09/18 13:20:43;;;;;;;10.23;3.50;;;;;;;;;;5086053;28;20495;-74
2023/09/18 13:23:17;;;;;;;7.68;3.45;;;;;;;;;;5067348;28;20052;-75
2023/09/18 13:25:50;;;;;;;8.18;3.22;;;;;;;;;;5083384;28;20060;-73
2023/09/18 13:28:21;;;;;;;9.25;3.60;;;;;;;;;;5067035;28;20644;-73
2023/09/18 13:30:53;;;;;;;8.15;3.25;;;;;;;;;;5085155;28;20434;-73
2023/09/18 13:33:25;;;;;;;7.35;3.22;;;;;;;;;;5084956;28;20094;-73
2023/09/18 13:35:56;;;;;;;7.38;3.13;;;;;;;;;;5085397;28;20063;-74
2023/09/18 13:38:26;;;;;;;5.80;2.72;;;;;;;;;;5084525;28;20048;-72
2023/09/18 13:40:57;;;;;;;7.38;3.45;;;;;;;;;;5084869;28;20495;-72
2023/09/18 13:43:32;;;;;;;6.88;2.88;;;;;;;;;;5085730;28;20055;-72
2023/09/18 13:46:04;;;;;;;8.20;3.40;;;;;;;;;;5085103;28;20048;-73
2023/09/18 13:48:35;;;;;;;11.10;3.90;;;;;;;;;;5085026;28;20036;-73
2023/09/18 13:51:06;;;;;;;7.20;3.80;;;;;;;;;;5085658;28;20047;-73
2023/09/18 13:53:38;;;;;;;13.32;3.30;;;;;;;;;;5084127;28;20052;-74
2023/09/18 13:56:08;;;;;;;8.45;3.45;;;;;;;;;;5084649;28;20036;-72
2023/09/18 13:58:41;;;;;;;7.07;3.10;;;;;;;;;;5084724;28;20412;-74
2023/09/18 14:01:11;;;;;;;4.75;2.67;;;;;;;;;;5084484;28;20410;-73
2023/09/18 14:03:45;;;;;;;6.95;2.75;;;;;;;;;;5084712;28;20044;-72
2023/09/18 14:06:15;;;;;;;5.10;2.70;;;;;;;;;;5083284;28;20777;-74
2023/09/18 14:08:45;;;;;;;7.57;3.13;;;;;;;;;;5084109;28;20048;-71
2023/09/18 14:11:18;;;;;;;10.68;2.65;;;;;;;;;;5084356;28;20661;-72
2023/09/18 14:13:48;;;;;;;10.30;3.15;;;;;;;;;;5084118;28;20503;-73
2023/09/18 14:16:20;;;;;;;8.60;2.85;;;;;;;;;;5082508;28;20074;-72
2023/09/18 14:18:52;;;;;;;8.45;2.90;;;;;;;;;;5082743;28;20052;-75
2023/09/18 14:21:23;;;;;;;10.95;3.13;;;;;;;;;;5084715;28;20040;-72
2023/09/18 14:23:54;;;;;;;9.98;2.85;;;;;;;;;;5083950;28;20059;-81
2023/09/18 14:26:26;;;;;;;7.57;2.75;;;;;;;;;;5084266;28;20070;-72
2023/09/18 14:28:57;;;;;;;6.03;2.70;;;;;;;;;;5083985;28;20111;-73
2023/09/18 14:31:28;;;;;;;5.90;2.75;;;;;;;;;;5083805;28;20055;-73
2023/09/18 14:34:00;;;;;;;4.38;2.33;;;;;;;;;;5084547;28;20385;-75
2023/09/18 14:36:32;;;;;;;14.85;3.10;;;;;;;;;;5083578;28;20036;-71
2023/09/18 14:39:04;;;;;;;6.05;2.70;;;;;;;;;;5084332;28;20055;-72
2023/09/18 14:41:35;;;;;;;4.20;2.67;;;;;;;;;;5083943;28;20762;-75
2023/09/18 14:44:11;;;;;;;5.45;2.60;;;;;;;;;;5066177;28;20056;-83
2023/09/18 14:46:43;;;;;;;7.63;2.80;;;;;;;;;;5083460;28;20080;-73
2023/09/18 14:49:14;;;;;;;5.78;2.35;;;;;;;;;;5083950;28;20055;-73
2023/09/18 14:51:44;;;;;;;9.30;3.50;;;;;;;;;;5083673;28;20113;-73
2023/09/18 14:54:15;;;;;;;4.60;2.47;;;;;;;;;;5083770;28;20056;-74
2023/09/18 14:56:46;;;;;;;6.82;2.47;;;;;;;;;;5084128;28;20040;-74
2023/09/18 14:59:17;;;;;;;5.45;2.30;;;;;;;;;;5083152;28;20070;-80
2023/09/18 15:02:07;;;;;;;5.68;2.83;;;;;;;;;;5083393;28;20052;-75
2023/09/18 15:04:38;;;;;;;3.47;2.15;;;;;;;;;;5082503;28;20044;-75
2023/09/18 15:07:10;;;;;;;5.25;2.40;;;;;;;;;;5083753;28;20062;-74
2023/09/18 15:09:41;;;;;;;4.68;2.67;;;;;;;;;;5083475;28;20054;-75
2023/09/18 15:12:11;;;;;;;9.27;3.97;;;;;;;;;;5084152;28;20044;-73